Time,TemperatureF,DewpointF,PressureIn,WindDirection,WindDirectionDegrees,WindSpeedMPH,WindSpeedGustMPH,Humidity,HourlyPrecipIn,Conditions,Clouds,dailyrainin,SoftwareType,DateUTC
2013-02-19 00:01:00,33.5,23.0,30.30,South,190,12.0,18.0,66,0.00,,,0.00,weatherlink.com 1.10,2013-02-19 05:01:00,
2013-02-19 00:16:00,33.2,23.0,30.30,South,186,10.0,18.0,66,0.00,,,0.00,weatherlink.com 1.10,2013-02-19 05:16:00,
2013-02-19 00:31:00,33.0,23.0,30.30,South,191,12.0,17.0,67,0.00,,,0.00,weatherlink.com 1.10,2013-02-19 05:31:00,
2013-02-19 00:46:00,32.6,23.0,30.29,SE,140,14.0,19.0,68,0.00,,,0.00,weatherlink.com 1.10,2013-02-19 05:46:00,
2013-02-19 01:01:00,32.4,23.0,30.29,South,184,9.0,20.0,69,0.00,,,0.00,weatherlink.com 1.10,2013-02-19 06:01:00,
2013-02-19 01:17:00,32.2,23.0,30.27,SSW,192,11.0,17.0,69,0.00,,,0.00,weatherlink.com 1.10,2013-02-19 06:17:00,
2013-02-19 01:32:00,31.9,23.0,30.26,South,184,13.0,18.0,71,0.00,,,0.00,weatherlink.com 1.10,2013-02-19 06:32:00,
2013-02-19 01:47:00,31.7,23.0,30.24,South,178,11.0,21.0,71,0.00,,,0.00,weatherlink.com 1.10,2013-02-19 06:47:00,
2013-02-19 02:02:00,31.5,23.0,30.23,SSW,199,15.0,17.0,72,0.00,,,0.00,weatherlink.com 1.10,2013-02-19 07:02:00,
2013-02-19 02:17:00,31.7,23.0,30.22,SSE,166,8.0,17.0,71,0.00,,,0.00,weatherlink.com 1.10,2013-02-19 07:17:00,
2013-02-19 02:32:00,31.3,23.0,30.23,South,190,11.0,16.0,72,0.00,,,0.00,weatherlink.com 1.10,2013-02-19 07:32:00,
2013-02-19 02:47:00,30.8,23.0,30.22,South,184,10.0,17.0,73,0.00,,,0.00,weatherlink.com 1.10,2013-02-19 07:47:00,
2013-02-19 03:02:00,30.9,23.0,30.22,South,186,8.0,16.0,73,0.00,,,0.00,weatherlink.com 1.10,2013-02-19 08:02:00,
2013-02-19 03:17:00,30.7,23.0,30.22,South,186,13.0,16.0,74,0.00,,,0.00,weatherlink.com 1.10,2013-02-19 08:17:00,
2013-02-19 03:32:00,30.4,23.0,30.19,South,188,11.0,17.0,75,0.00,,,0.00,weatherlink.com 1.10,2013-02-19 08:32:00,
2013-02-19 03:47:00,30.1,23.0,30.20,South,183,9.0,12.0,76,0.00,,,0.00,weatherlink.com 1.10,2013-02-19 08:47:00,
2013-02-19 04:02:00,30.1,23.0,30.20,SSE,165,10.0,14.0,76,0.00,,,0.00,weatherlink.com 1.10,2013-02-19 09:02:00,
2013-02-19 04:17:00,30.5,23.0,30.20,South,177,10.0,17.0,75,0.00,,,0.00,weatherlink.com 1.10,2013-02-19 09:17:00,
2013-02-19 04:32:00,31.5,23.0,30.19,SE,140,9.0,21.0,71,0.00,,,0.00,weatherlink.com 1.10,2013-02-19 09:32:00,
2013-02-19 04:47:00,31.7,23.0,30.19,South,183,12.0,17.0,70,0.00,,,0.00,weatherlink.com 1.10,2013-02-19 09:47:00,
2013-02-19 05:02:00,31.9,23.0,30.19,SSW,195,9.0,13.0,69,0.00,,,0.00,weatherlink.com 1.10,2013-02-19 10:02:00,
2013-02-19 05:17:00,33.2,23.0,30.18,SSW,199,7.0,16.0,66,0.00,,,0.00,weatherlink.com 1.10,2013-02-19 10:17:00,
2013-02-19 05:32:00,33.9,23.0,30.18,South,191,6.0,23.0,65,0.00,,,0.00,weatherlink.com 1.10,2013-02-19 10:32:00,
2013-02-19 05:47:00,34.0,24.0,30.18,SSW,196,8.0,16.0,67,0.00,,,0.00,weatherlink.com 1.10,2013-02-19 10:47:00,
2013-02-19 06:02:00,34.4,26.0,30.18,SW,234,11.0,19.0,70,0.00,,,0.00,weatherlink.com 1.10,2013-02-19 11:02:00,
2013-02-19 06:17:00,31.6,29.0,30.18,South,169,16.0,18.0,89,0.00,,,0.00,weatherlink.com 1.10,2013-02-19 11:17:00,
2013-02-19 06:32:00,30.9,29.0,30.17,South,180,9.0,18.0,92,0.00,,,0.00,weatherlink.com 1.10,2013-02-19 11:32:00,
2013-02-19 06:47:00,30.8,29.0,30.17,SSW,194,7.0,14.0,92,0.00,,,0.00,weatherlink.com 1.10,2013-02-19 11:47:00,
2013-02-19 07:02:00,31.0,29.0,30.16,South,178,8.0,17.0,92,0.00,,,0.00,weatherlink.com 1.10,2013-02-19 12:02:00,
2013-02-19 07:17:00,31.4,30.0,30.16,South,191,6.0,16.0,93,0.00,,,0.00,weatherlink.com 1.10,2013-02-19 12:17:00,
2013-02-19 07:32:00,31.8,30.0,30.16,SSE,149,7.0,13.0,93,0.00,,,0.00,weatherlink.com 1.10,2013-02-19 12:32:00,
2013-02-19 07:47:00,32.4,31.0,30.15,SSE,162,6.0,11.0,93,0.00,,,0.00,weatherlink.com 1.10,2013-02-19 12:47:00,
2013-02-19 08:02:00,32.9,31.0,30.15,South,190,8.0,13.0,93,0.00,,,0.00,weatherlink.com 1.10,2013-02-19 13:02:00,
2013-02-19 08:17:00,33.3,32.0,30.13,South,184,8.0,14.0,93,0.00,,,0.00,weatherlink.com 1.10,2013-02-19 13:17:00,
2013-02-19 08:32:00,32.9,31.0,30.12,South,180,6.0,11.0,93,0.00,,,0.00,weatherlink.com 1.10,2013-02-19 13:32:00,
2013-02-19 08:48:00,32.5,31.0,30.11,South,178,6.0,10.0,93,0.00,,,0.00,weatherlink.com 1.10,2013-02-19 13:48:00,
2013-02-19 09:03:00,32.1,30.0,30.11,South,184,4.0,8.0,93,0.00,,,0.00,weatherlink.com 1.10,2013-02-19 14:03:00,
2013-02-19 09:18:00,32.4,31.0,30.11,South,182,3.0,7.0,93,0.00,,,0.00,weatherlink.com 1.10,2013-02-19 14:18:00,
2013-02-19 09:32:00,32.6,31.0,30.10,SSE,161,2.0,6.0,94,0.00,,,0.00,weatherlink.com 1.10,2013-02-19 14:32:00,
2013-02-19 09:47:00,33.0,32.0,30.10,South,187,6.0,9.0,94,0.00,,,0.00,weatherlink.com 1.10,2013-02-19 14:47:00,
2013-02-19 10:03:00,32.8,31.0,30.09,South,178,4.0,7.0,94,0.00,,,0.00,weatherlink.com 1.10,2013-02-19 15:03:00,
2013-02-19 10:17:00,33.1,32.0,30.09,SSW,205,2.0,7.0,94,0.00,,,0.00,weatherlink.com 1.10,2013-02-19 15:17:00,
2013-02-19 10:32:00,33.2,32.0,30.09,SSE,148,1.0,7.0,94,0.00,,,0.00,weatherlink.com 1.10,2013-02-19 15:32:00,
2013-02-19 10:47:00,33.4,32.0,30.09,SW,214,1.0,5.0,94,0.01,,,0.01,weatherlink.com 1.10,2013-02-19 15:47:00,
2013-02-19 11:02:00,34.3,33.0,30.09,SSW,192,4.0,7.0,94,0.01,,,0.01,weatherlink.com 1.10,2013-02-19 16:02:00,
2013-02-19 11:19:00,35.2,34.0,30.08,SW,220,4.0,11.0,94,0.02,,,0.02,weatherlink.com 1.10,2013-02-19 16:19:00,
2013-02-19 11:32:00,38.0,37.0,30.07,West,277,4.0,15.0,94,0.03,,,0.03,weatherlink.com 1.10,2013-02-19 16:32:00,
2013-02-19 11:47:00,38.7,37.0,30.06,SSW,192,3.0,10.0,94,0.02,,,0.03,weatherlink.com 1.10,2013-02-19 16:47:00,
2013-02-19 12:03:00,40.9,39.0,30.05,South,188,6.0,22.0,94,0.02,,,0.04,weatherlink.com 1.10,2013-02-19 17:03:00,
2013-02-19 12:18:00,39.3,38.0,30.05,SE,146,4.0,16.0,93,0.02,,,0.04,weatherlink.com 1.10,2013-02-19 17:18:00,
2013-02-19 12:33:00,40.5,39.0,30.04,South,188,6.0,17.0,93,0.01,,,0.04,weatherlink.com 1.10,2013-02-19 17:33:00,
2013-02-19 12:48:00,43.8,41.0,30.04,SSW,192,5.0,17.0,89,0.01,,,0.04,weatherlink.com 1.10,2013-02-19 17:48:00,
2013-02-19 13:03:00,43.4,38.0,30.03,WSW,248,16.0,25.0,82,0.00,,,0.04,weatherlink.com 1.10,2013-02-19 18:03:00,
2013-02-19 13:18:00,44.7,37.0,30.02,WSW,247,20.0,22.0,73,0.00,,,0.04,weatherlink.com 1.10,2013-02-19 18:18:00,
2013-02-19 13:33:00,45.6,35.0,30.02,SW,227,5.0,19.0,66,0.00,,,0.04,weatherlink.com 1.10,2013-02-19 18:33:00,
2013-02-19 13:48:00,46.6,32.0,30.00,NW,304,4.0,24.0,58,0.00,,,0.04,weatherlink.com 1.10,2013-02-19 18:48:00,
2013-02-19 14:03:00,44.6,34.0,30.00,NNE,31,5.0,24.0,67,0.00,,,0.04,weatherlink.com 1.10,2013-02-19 19:03:00,
2013-02-19 14:18:00,44.7,35.0,30.00,WNW,284,5.0,18.0,68,0.00,,,0.04,weatherlink.com 1.10,2013-02-19 19:18:00,
2013-02-19 14:33:00,45.2,33.0,30.00,North,5,7.0,14.0,63,0.00,,,0.04,weatherlink.com 1.10,2013-02-19 19:33:00,
2013-02-19 14:48:00,45.3,34.0,30.00,NNE,26,5.0,21.0,64,0.00,,,0.04,weatherlink.com 1.10,2013-02-19 19:48:00,
2013-02-19 15:03:00,44.4,31.0,30.00,WNW,294,5.0,18.0,60,0.00,,,0.04,weatherlink.com 1.10,2013-02-19 20:03:00,
2013-02-19 15:19:00,44.7,25.0,30.00,West,264,4.0,16.0,47,0.00,,,0.04,weatherlink.com 1.10,2013-02-19 20:19:00,
2013-02-19 15:34:00,44.4,28.0,30.00,West,266,5.0,18.0,53,0.00,,,0.04,weatherlink.com 1.10,2013-02-19 20:34:00,
2013-02-19 15:49:00,42.8,29.0,30.01,NNW,338,7.0,27.0,58,0.00,,,0.04,weatherlink.com 1.10,2013-02-19 20:49:00,
2013-02-19 16:04:00,42.0,27.0,30.01,WNW,293,7.0,24.0,55,0.00,,,0.04,weatherlink.com 1.10,2013-02-19 21:04:00,
2013-02-19 16:19:00,42.3,26.0,30.02,West,268,4.0,19.0,52,0.00,,,0.04,weatherlink.com 1.10,2013-02-19 21:19:00,
2013-02-19 16:34:00,42.3,27.0,30.02,NW,323,4.0,11.0,54,0.00,,,0.04,weatherlink.com 1.10,2013-02-19 21:34:00,
2013-02-19 16:49:00,40.4,26.0,30.03,NNW,342,3.0,11.0,58,0.00,,,0.04,weatherlink.com 1.10,2013-02-19 21:49:00,
2013-02-19 17:04:00,38.4,25.0,30.04,SW,224,7.0,19.0,59,0.00,,,0.04,weatherlink.com 1.10,2013-02-19 22:04:00,
2013-02-19 17:19:00,37.4,23.0,30.03,NW,311,6.0,31.0,56,0.00,,,0.04,weatherlink.com 1.10,2013-02-19 22:19:00,
2013-02-19 17:34:00,37.1,23.0,30.04,NW,310,9.0,21.0,56,0.00,,,0.04,weatherlink.com 1.10,2013-02-19 22:34:00,
2013-02-19 17:49:00,37.2,23.0,30.04,WNW,284,16.0,21.0,56,0.00,,,0.04,weatherlink.com 1.10,2013-02-19 22:49:00,
2013-02-19 18:04:00,36.9,22.0,30.04,NW,318,3.0,25.0,55,0.00,,,0.04,weatherlink.com 1.10,2013-02-19 23:04:00,
2013-02-19 18:19:00,36.5,22.0,30.05,NE,50,4.0,18.0,56,0.00,,,0.04,weatherlink.com 1.10,2013-02-19 23:19:00,
2013-02-19 18:34:00,36.2,22.0,30.05,West,262,3.0,22.0,57,0.00,,,0.04,weatherlink.com 1.10,2013-02-19 23:34:00,
2013-02-19 18:49:00,35.9,21.0,30.05,NW,322,5.0,25.0,54,0.00,,,0.04,weatherlink.com 1.10,2013-02-19 23:49:00,
2013-02-19 19:04:00,35.5,20.0,30.05,NE,46,9.0,19.0,53,0.00,,,0.04,weatherlink.com 1.10,2013-02-20 00:04:00,
2013-02-19 19:19:00,35.1,18.0,30.06,North,355,5.0,24.0,50,0.00,,,0.04,weatherlink.com 1.10,2013-02-20 00:19:00,
2013-02-19 19:34:00,34.8,16.0,30.06,West,277,5.0,22.0,47,0.00,,,0.04,weatherlink.com 1.10,2013-02-20 00:34:00,
2013-02-19 19:49:00,34.4,16.0,30.07,SW,219,5.0,23.0,47,0.00,,,0.04,weatherlink.com 1.10,2013-02-20 00:49:00,
2013-02-19 20:04:00,34.0,16.0,30.07,NE,51,2.0,30.0,47,0.00,,,0.04,weatherlink.com 1.10,2013-02-20 01:04:00,
2013-02-19 20:19:00,33.5,16.0,30.06,NW,316,10.0,25.0,48,0.00,,,0.04,weatherlink.com 1.10,2013-02-20 01:19:00,
2013-02-19 20:34:00,33.1,16.0,30.07,NNW,341,15.0,21.0,50,0.00,,,0.04,weatherlink.com 1.10,2013-02-20 01:34:00,
2013-02-19 20:49:00,32.7,16.0,30.07,North,360,7.0,22.0,50,0.00,,,0.04,weatherlink.com 1.10,2013-02-20 01:49:00,
2013-02-19 21:04:00,32.2,15.0,30.07,NNE,22,7.0,29.0,50,0.00,,,0.04,weatherlink.com 1.10,2013-02-20 02:04:00,
2013-02-19 21:19:00,31.9,15.0,30.07,North,11,7.0,26.0,49,0.00,,,0.04,weatherlink.com 1.10,2013-02-20 02:19:00,
2013-02-19 21:34:00,31.4,13.0,30.08,West,267,5.0,27.0,47,0.00,,,0.04,weatherlink.com 1.10,2013-02-20 02:34:00,
2013-02-19 21:49:00,31.0,13.0,30.08,North,9,6.0,28.0,47,0.00,,,0.04,weatherlink.com 1.10,2013-02-20 02:49:00,
2013-02-19 22:04:00,30.5,13.0,30.08,NNE,30,7.0,28.0,48,0.00,,,0.04,weatherlink.com 1.10,2013-02-20 03:04:00,
2013-02-19 22:19:00,30.2,13.0,30.08,NNW,336,7.0,24.0,48,0.00,,,0.04,weatherlink.com 1.10,2013-02-20 03:19:00,
2013-02-19 22:34:00,29.9,12.0,30.08,NW,324,4.0,28.0,47,0.00,,,0.04,weatherlink.com 1.10,2013-02-20 03:34:00,
2013-02-19 22:49:00,29.5,11.0,30.07,South,175,11.0,23.0,47,0.00,,,0.04,weatherlink.com 1.10,2013-02-20 03:49:00,
2013-02-19 23:04:00,29.3,12.0,30.08,WNW,300,14.0,23.0,49,0.00,,,0.04,weatherlink.com 1.10,2013-02-20 04:04:00,
2013-02-19 23:20:00,28.8,12.0,30.08,NE,46,4.0,30.0,49,0.00,,,0.04,weatherlink.com 1.10,2013-02-20 04:20:00,
2013-02-19 23:35:00,28.5,10.0,30.08,NNW,332,19.0,21.0,45,0.00,,,0.04,weatherlink.com 1.10,2013-02-20 04:35:00,
2013-02-19 23:50:00,28.3,10.0,30.08,North,351,11.0,25.0,46,0.00,,,0.04,weatherlink.com 1.10,2013-02-20 04:50:00,